sensor_id;sensor_type;location;lat;lon;timestamp;pressure;altitude;pressure_sealevel;temperature
41940;BMP180;23057;48.554;14.454;2023-12-28T00:00:09;93895.00;;;9.60
41940;BMP180;23057;48.554;14.454;2023-12-28T00:02:40;93906.00;;;9.60
41940;BMP180;23057;48.554;14.454;2023-12-28T00:05:11;93912.00;;;9.60
41940;BMP180;23057;48.554;14.454;2023-12-28T00:07:42;93901.00;;;9.60
41940;BMP180;23057;48.554;14.454;2023-12-28T00:10:13;93899.00;;;9.60
41940;BMP180;23057;48.554;14.454;2023-12-28T00:12:44;93904.00;;;9.60
41940;BMP180;23057;48.554;14.454;2023-12-28T00:15:15;93909.00;;;9.50
41940;BMP180;23057;48.554;14.454;2023-12-28T00:17:46;93900.00;;;9.50
41940;BMP180;23057;48.554;14.454;2023-12-28T00:20:16;93899.00;;;9.50
41940;BMP180;23057;48.554;14.454;2023-12-28T00:22:47;93906.00;;;9.40
41940;BMP180;23057;48.554;14.454;2023-12-28T00:25:18;93899.00;;;9.30
41940;BMP180;23057;48.554;14.454;2023-12-28T00:27:49;93888.00;;;9.30
41940;BMP180;23057;48.554;14.454;2023-12-28T00:30:20;93882.00;;;9.20
41940;BMP180;23057;48.554;14.454;2023-12-28T00:32:50;93891.00;;;9.20
41940;BMP180;23057;48.554;14.454;2023-12-28T00:35:21;93903.00;;;9.10
41940;BMP180;23057;48.554;14.454;2023-12-28T00:37:52;93895.00;;;9.10
41940;BMP180;23057;48.554;14.454;2023-12-28T00:40:23;93898.00;;;9.10
41940;BMP180;23057;48.554;14.454;2023-12-28T00:42:53;93900.00;;;9.20
41940;BMP180;23057;48.554;14.454;2023-12-28T00:45:24;93900.00;;;9.20
41940;BMP180;23057;48.554;14.454;2023-12-28T00:47:55;93891.00;;;9.30
41940;BMP180;23057;48.554;14.454;2023-12-28T00:50:27;93893.00;;;9.30
41940;BMP180;23057;48.554;14.454;2023-12-28T00:53:02;93885.00;;;9.20
41940;BMP180;23057;48.554;14.454;2023-12-28T00:55:32;93891.00;;;9.20
41940;BMP180;23057;48.554;14.454;2023-12-28T00:58:03;93895.00;;;9.20
41940;BMP180;23057;48.554;14.454;2023-12-28T01:00:34;93903.00;;;9.10
41940;BMP180;23057;48.554;14.454;2023-12-28T01:03:05;93904.00;;;9.10
41940;BMP180;23057;48.554;14.454;2023-12-28T01:05:36;93899.00;;;9.10
41940;BMP180;23057;48.554;14.454;2023-12-28T01:08:06;93914.00;;;9.00
41940;BMP180;23057;48.554;14.454;2023-12-28T01:10:37;93913.00;;;9.00
41940;BMP180;23057;48.554;14.454;2023-12-28T01:13:08;93913.00;;;9.00
41940;BMP180;23057;48.554;14.454;2023-12-28T01:15:39;93909.00;;;9.00
41940;BMP180;23057;48.554;14.454;2023-12-28T01:18:10;93907.00;;;8.90
41940;BMP180;23057;48.554;14.454;2023-12-28T01:20:41;93907.00;;;8.90
41940;BMP180;23057;48.554;14.454;2023-12-28T01:23:12;93904.00;;;8.90
41940;BMP180;23057;48.554;14.454;2023-12-28T01:25:42;93901.00;;;8.80
41940;BMP180;23057;48.554;14.454;2023-12-28T01:28:13;93897.00;;;8.70
41940;BMP180;23057;48.554;14.454;2023-12-28T01:30:44;93893.00;;;8.70
41940;BMP180;23057;48.554;14.454;2023-12-28T01:33:15;93891.00;;;8.80
41940;BMP180;23057;48.554;14.454;2023-12-28T01:35:46;93904.00;;;8.80
41940;BMP180;23057;48.554;14.454;2023-12-28T01:38:16;93895.00;;;8.80
41940;BMP180;23057;48.554;14.454;2023-12-28T01:40:47;93890.00;;;8.80
41940;BMP180;23057;48.554;14.454;2023-12-28T01:43:18;93887.00;;;8.80
41940;BMP180;23057;48.554;14.454;2023-12-28T01:45:49;93891.00;;;8.80
41940;BMP180;23057;48.554;14.454;2023-12-28T01:48:20;93904.00;;;8.70
41940;BMP180;23057;48.554;14.454;2023-12-28T01:50:51;93908.00;;;8.60
41940;BMP180;23057;48.554;14.454;2023-12-28T01:53:22;93906.00;;;8.60
41940;BMP180;23057;48.554;14.454;2023-12-28T01:55:53;93907.00;;;8.60
41940;BMP180;23057;48.554;14.454;2023-12-28T01:58:26;93905.00;;;8.60
41940;BMP180;23057;48.554;14.454;2023-12-28T02:00:59;93909.00;;;8.60
41940;BMP180;23057;48.554;14.454;2023-12-28T02:03:31;93911.00;;;8.70
41940;BMP180;23057;48.554;14.454;2023-12-28T02:06:03;93925.00;;;8.70
41940;BMP180;23057;48.554;14.454;2023-12-28T02:08:36;93933.00;;;8.70
41940;BMP180;23057;48.554;14.454;2023-12-28T02:11:08;93922.00;;;8.70
41940;BMP180;23057;48.554;14.454;2023-12-28T02:13:39;93933.00;;;8.60
41940;BMP180;23057;48.554;14.454;2023-12-28T02:16:16;93933.00;;;8.60
41940;BMP180;23057;48.554;14.454;2023-12-28T02:19:00;93912.00;;;8.70
41940;BMP180;23057;48.554;14.454;2023-12-28T02:21:43;93911.00;;;8.70
41940;BMP180;23057;48.554;14.454;2023-12-28T02:24:15;93905.00;;;8.70
41940;BMP180;23057;48.554;14.454;2023-12-28T02:26:45;93926.00;;;8.70
41940;BMP180;23057;48.554;14.454;2023-12-28T02:29:17;93916.00;;;8.70
41940;BMP180;23057;48.554;14.454;2023-12-28T02:32:03;93920.00;;;8.80
41940;BMP180;23057;48.554;14.454;2023-12-28T02:34:42;93910.00;;;8.80
41940;BMP180;23057;48.554;14.454;2023-12-28T02:37:16;93920.00;;;8.80
41940;BMP180;23057;48.554;14.454;2023-12-28T02:39:51;93925.00;;;8.80
41940;BMP180;23057;48.554;14.454;2023-12-28T02:42:23;93909.00;;;8.90
41940;BMP180;23057;48.554;14.454;2023-12-28T02:44:54;93927.00;;;9.00
41940;BMP180;23057;48.554;14.454;2023-12-28T02:47:25;93930.00;;;9.00
41940;BMP180;23057;48.554;14.454;2023-12-28T02:49:56;93931.00;;;9.00
41940;BMP180;23057;48.554;14.454;2023-12-28T02:52:29;93921.00;;;9.10
41940;BMP180;23057;48.554;14.454;2023-12-28T02:55:00;93936.00;;;9.10
41940;BMP180;23057;48.554;14.454;2023-12-28T02:57:31;93939.00;;;9.10
41940;BMP180;23057;48.554;14.454;2023-12-28T03:00:02;93932.00;;;9.10
41940;BMP180;23057;48.554;14.454;2023-12-28T03:02:38;93934.00;;;9.20
41940;BMP180;23057;48.554;14.454;2023-12-28T03:05:09;93933.00;;;9.20
41940;BMP180;23057;48.554;14.454;2023-12-28T03:07:40;93934.00;;;9.20
41940;BMP180;23057;48.554;14.454;2023-12-28T03:10:11;93936.00;;;9.20
41940;BMP180;23057;48.554;14.454;2023-12-28T03:12:42;93938.00;;;9.20
41940;BMP180;23057;48.554;14.454;2023-12-28T03:15:13;93939.00;;;9.30
41940;BMP180;23057;48.554;14.454;2023-12-28T03:17:44;93944.00;;;9.20
41940;BMP180;23057;48.554;14.454;2023-12-28T03:20:15;93944.00;;;9.20
41940;BMP180;23057;48.554;14.454;2023-12-28T03:22:46;93952.00;;;9.20
41940;BMP180;23057;48.554;14.454;2023-12-28T03:25:17;93948.00;;;9.20
41940;BMP180;23057;48.554;14.454;2023-12-28T03:27:47;93952.00;;;9.20
41940;BMP180;23057;48.554;14.454;2023-12-28T03:30:18;93961.00;;;9.20
41940;BMP180;23057;48.554;14.454;2023-12-28T03:32:49;93959.00;;;9.30
41940;BMP180;23057;48.554;14.454;2023-12-28T03:35:20;93958.00;;;9.20
41940;BMP180;23057;48.554;14.454;2023-12-28T03:37:50;93961.00;;;9.20
41940;BMP180;23057;48.554;14.454;2023-12-28T03:40:21;93954.00;;;9.20
41940;BMP180;23057;48.554;14.454;2023-12-28T03:42:52;93949.00;;;9.20
41940;BMP180;23057;48.554;14.454;2023-12-28T03:45:23;93945.00;;;9.20
41940;BMP180;23057;48.554;14.454;2023-12-28T03:47:54;93947.00;;;9.20
41940;BMP180;23057;48.554;14.454;2023-12-28T03:50:24;93957.00;;;9.20
41940;BMP180;23057;48.554;14.454;2023-12-28T03:52:55;93952.00;;;9.10
41940;BMP180;23057;48.554;14.454;2023-12-28T03:55:26;93951.00;;;9.10
41940;BMP180;23057;48.554;14.454;2023-12-28T03:57:57;93963.00;;;9.10
41940;BMP180;23057;48.554;14.454;2023-12-28T04:00:29;93957.00;;;9.10
41940;BMP180;23057;48.554;14.454;2023-12-28T04:02:59;93953.00;;;9.20
41940;BMP180;23057;48.554;14.454;2023-12-28T04:05:30;93954.00;;;9.20
41940;BMP180;23057;48.554;14.454;2023-12-28T04:08:01;93959.00;;;9.20
41940;BMP180;23057;48.554;14.454;2023-12-28T04:10:33;93954.00;;;9.10
41940;BMP180;23057;48.554;14.454;2023-12-28T04:13:04;93962.00;;;9.10
41940;BMP180;23057;48.554;14.454;2023-12-28T04:15:35;93956.00;;;9.10
41940;BMP180;23057;48.554;14.454;2023-12-28T04:18:05;93952.00;;;9.10
41940;BMP180;23057;48.554;14.454;2023-12-28T04:20:36;93964.00;;;9.10
41940;BMP180;23057;48.554;14.454;2023-12-28T04:23:07;93959.00;;;9.10
41940;BMP180;23057;48.554;14.454;2023-12-28T04:25:38;93961.00;;;9.10
41940;BMP180;23057;48.554;14.454;2023-12-28T04:28:08;93964.00;;;9.10
41940;BMP180;23057;48.554;14.454;2023-12-28T04:30:39;93965.00;;;9.20
41940;BMP180;23057;48.554;14.454;2023-12-28T04:33:10;93950.00;;;9.20
41940;BMP180;23057;48.554;14.454;2023-12-28T04:35:41;93945.00;;;9.20
41940;BMP180;23057;48.554;14.454;2023-12-28T04:38:12;93951.00;;;9.20
41940;BMP180;23057;48.554;14.454;2023-12-28T04:40:43;93945.00;;;9.20
41940;BMP180;23057;48.554;14.454;2023-12-28T04:43:14;93948.00;;;9.20
41940;BMP180;23057;48.554;14.454;2023-12-28T04:45:45;93945.00;;;9.30
41940;BMP180;23057;48.554;14.454;2023-12-28T04:48:16;93944.00;;;9.30
41940;BMP180;23057;48.554;14.454;2023-12-28T04:50:51;93949.00;;;9.40
41940;BMP180;23057;48.554;14.454;2023-12-28T04:53:24;93964.00;;;9.40
41940;BMP180;23057;48.554;14.454;2023-12-28T04:55:55;93963.00;;;9.30
41940;BMP180;23057;48.554;14.454;2023-12-28T04:58:26;93968.00;;;9.30
41940;BMP180;23057;48.554;14.454;2023-12-28T05:00:57;93974.00;;;9.30
41940;BMP180;23057;48.554;14.454;2023-12-28T05:03:28;93968.00;;;9.20
41940;BMP180;23057;48.554;14.454;2023-12-28T05:06:01;93960.00;;;9.10
41940;BMP180;23057;48.554;14.454;2023-12-28T05:08:32;93983.00;;;9.10
41940;BMP180;23057;48.554;14.454;2023-12-28T05:11:05;93986.00;;;9.10
41940;BMP180;23057;48.554;14.454;2023-12-28T05:13:36;93983.00;;;9.10
41940;BMP180;23057;48.554;14.454;2023-12-28T05:16:07;93995.00;;;9.00
41940;BMP180;23057;48.554;14.454;2023-12-28T05:18:37;93993.00;;;9.00
41940;BMP180;23057;48.554;14.454;2023-12-28T05:21:08;93982.00;;;9.00
41940;BMP180;23057;48.554;14.454;2023-12-28T05:23:39;93978.00;;;9.00
41940;BMP180;23057;48.554;14.454;2023-12-28T05:26:10;93988.00;;;9.00
41940;BMP180;23057;48.554;14.454;2023-12-28T05:28:42;93990.00;;;9.00
41940;BMP180;23057;48.554;14.454;2023-12-28T05:31:13;93993.00;;;8.90
41940;BMP180;23057;48.554;14.454;2023-12-28T05:33:43;93992.00;;;8.90
41940;BMP180;23057;48.554;14.454;2023-12-28T05:36:14;93999.00;;;8.80
41940;BMP180;23057;48.554;14.454;2023-12-28T05:38:45;94004.00;;;8.80
41940;BMP180;23057;48.554;14.454;2023-12-28T05:41:16;93998.00;;;8.80
41940;BMP180;23057;48.554;14.454;2023-12-28T05:43:46;94003.00;;;8.70
41940;BMP180;23057;48.554;14.454;2023-12-28T05:46:17;94001.00;;;8.60
41940;BMP180;23057;48.554;14.454;2023-12-28T05:48:48;93999.00;;;8.50
41940;BMP180;23057;48.554;14.454;2023-12-28T05:51:19;93998.00;;;8.40
41940;BMP180;23057;48.554;14.454;2023-12-28T05:53:50;93991.00;;;8.40
41940;BMP180;23057;48.554;14.454;2023-12-28T05:56:21;93986.00;;;8.30
41940;BMP180;23057;48.554;14.454;2023-12-28T05:58:52;93991.00;;;8.30
41940;BMP180;23057;48.554;14.454;2023-12-28T06:01:23;93995.00;;;8.30
41940;BMP180;23057;48.554;14.454;2023-12-28T06:03:54;94000.00;;;8.30
41940;BMP180;23057;48.554;14.454;2023-12-28T06:06:25;93998.00;;;8.30
41940;BMP180;23057;48.554;14.454;2023-12-28T06:08:55;94001.00;;;8.40
41940;BMP180;23057;48.554;14.454;2023-12-28T06:11:26;94001.00;;;8.40
41940;BMP180;23057;48.554;14.454;2023-12-28T06:13:57;93998.00;;;8.40
41940;BMP180;23057;48.554;14.454;2023-12-28T06:16:28;93992.00;;;8.50
41940;BMP180;23057;48.554;14.454;2023-12-28T06:19:03;93998.00;;;8.50
41940;BMP180;23057;48.554;14.454;2023-12-28T06:21:33;94000.00;;;8.60
41940;BMP180;23057;48.554;14.454;2023-12-28T06:24:04;94004.00;;;8.60
41940;BMP180;23057;48.554;14.454;2023-12-28T06:26:43;93993.00;;;8.70
41940;BMP180;23057;48.554;14.454;2023-12-28T06:29:14;94000.00;;;8.70
41940;BMP180;23057;48.554;14.454;2023-12-28T06:31:45;93991.00;;;8.70
41940;BMP180;23057;48.554;14.454;2023-12-28T06:34:16;93993.00;;;8.70
41940;BMP180;23057;48.554;14.454;2023-12-28T06:36:47;93998.00;;;8.80
41940;BMP180;23057;48.554;14.454;2023-12-28T06:39:18;94002.00;;;8.90
41940;BMP180;23057;48.554;14.454;2023-12-28T06:41:49;93994.00;;;8.90
41940;BMP180;23057;48.554;14.454;2023-12-28T06:44:20;93997.00;;;8.90
41940;BMP180;23057;48.554;14.454;2023-12-28T06:46:51;94002.00;;;8.90
41940;BMP180;23057;48.554;14.454;2023-12-28T06:49:22;93995.00;;;8.90
41940;BMP180;23057;48.554;14.454;2023-12-28T06:51:52;93993.00;;;8.90
41940;BMP180;23057;48.554;14.454;2023-12-28T06:54:23;94006.00;;;8.90
41940;BMP180;23057;48.554;14.454;2023-12-28T06:56:54;94001.00;;;8.90
41940;BMP180;23057;48.554;14.454;2023-12-28T06:59:25;94009.00;;;9.00
41940;BMP180;23057;48.554;14.454;2023-12-28T07:01:56;94006.00;;;9.20
41940;BMP180;23057;48.554;14.454;2023-12-28T07:04:27;94008.00;;;9.40
41940;BMP180;23057;48.554;14.454;2023-12-28T07:06:59;94009.00;;;9.50
41940;BMP180;23057;48.554;14.454;2023-12-28T07:09:30;94024.00;;;9.60
41940;BMP180;23057;48.554;14.454;2023-12-28T07:12:01;94019.00;;;9.60
41940;BMP180;23057;48.554;14.454;2023-12-28T07:14:32;94016.00;;;9.70
41940;BMP180;23057;48.554;14.454;2023-12-28T07:17:06;94020.00;;;9.70
41940;BMP180;23057;48.554;14.454;2023-12-28T07:19:37;94021.00;;;9.70
41940;BMP180;23057;48.554;14.454;2023-12-28T07:22:08;94028.00;;;9.80
41940;BMP180;23057;48.554;14.454;2023-12-28T07:24:39;94028.00;;;9.80
41940;BMP180;23057;48.554;14.454;2023-12-28T07:27:09;94022.00;;;9.80
41940;BMP180;23057;48.554;14.454;2023-12-28T07:29:40;94021.00;;;9.80
41940;BMP180;23057;48.554;14.454;2023-12-28T07:32:11;94018.00;;;9.70
41940;BMP180;23057;48.554;14.454;2023-12-28T07:34:42;94026.00;;;9.70
41940;BMP180;23057;48.554;14.454;2023-12-28T07:37:13;94019.00;;;9.70
41940;BMP180;23057;48.554;14.454;2023-12-28T07:39:44;93999.00;;;9.70
41940;BMP180;23057;48.554;14.454;2023-12-28T07:42:14;94014.00;;;9.80
41940;BMP180;23057;48.554;14.454;2023-12-28T07:44:45;94010.00;;;9.80
41940;BMP180;23057;48.554;14.454;2023-12-28T07:47:16;94009.00;;;9.80
41940;BMP180;23057;48.554;14.454;2023-12-28T07:49:47;94009.00;;;9.90
41940;BMP180;23057;48.554;14.454;2023-12-28T07:52:18;94010.00;;;9.90
41940;BMP180;23057;48.554;14.454;2023-12-28T07:54:49;94012.00;;;10.10
41940;BMP180;23057;48.554;14.454;2023-12-28T07:57:20;94014.00;;;10.20
41940;BMP180;23057;48.554;14.454;2023-12-28T07:59:51;94011.00;;;10.40
41940;BMP180;23057;48.554;14.454;2023-12-28T08:02:22;94014.00;;;10.60
41940;BMP180;23057;48.554;14.454;2023-12-28T08:04:53;94009.00;;;10.80
41940;BMP180;23057;48.554;14.454;2023-12-28T08:07:24;94013.00;;;10.90
41940;BMP180;23057;48.554;14.454;2023-12-28T08:09:55;94015.00;;;11.00
41940;BMP180;23057;48.554;14.454;2023-12-28T08:12:26;94013.00;;;11.10
41940;BMP180;23057;48.554;14.454;2023-12-28T08:14:59;94025.00;;;11.20
41940;BMP180;23057;48.554;14.454;2023-12-28T08:17:30;94018.00;;;11.30
41940;BMP180;23057;48.554;14.454;2023-12-28T08:20:01;94016.00;;;11.40
41940;BMP180;23057;48.554;14.454;2023-12-28T08:22:32;94022.00;;;11.50
41940;BMP180;23057;48.554;14.454;2023-12-28T08:25:03;94017.00;;;11.60
41940;BMP180;23057;48.554;14.454;2023-12-28T08:27:35;94018.00;;;11.70
41940;BMP180;23057;48.554;14.454;2023-12-28T08:30:07;94016.00;;;11.80
41940;BMP180;23057;48.554;14.454;2023-12-28T08:32:38;94021.00;;;11.90
41940;BMP180;23057;48.554;14.454;2023-12-28T08:35:09;94025.00;;;12.00
41940;BMP180;23057;48.554;14.454;2023-12-28T08:37:40;94027.00;;;12.20
41940;BMP180;23057;48.554;14.454;2023-12-28T08:40:11;94024.00;;;12.30
41940;BMP180;23057;48.554;14.454;2023-12-28T08:42:42;94020.00;;;12.40
41940;BMP180;23057;48.554;14.454;2023-12-28T08:45:13;94016.00;;;12.50
41940;BMP180;23057;48.554;14.454;2023-12-28T08:47:44;94019.00;;;12.60
41940;BMP180;23057;48.554;14.454;2023-12-28T08:50:15;94019.00;;;12.70
41940;BMP180;23057;48.554;14.454;2023-12-28T08:52:45;94022.00;;;12.80
41940;BMP180;23057;48.554;14.454;2023-12-28T08:55:16;94029.00;;;12.90
41940;BMP180;23057;48.554;14.454;2023-12-28T08:57:47;94025.00;;;13.00
41940;BMP180;23057;48.554;14.454;2023-12-28T09:00:18;94033.00;;;13.10
41940;BMP180;23057;48.554;14.454;2023-12-28T09:02:49;94029.00;;;13.30
41940;BMP180;23057;48.554;14.454;2023-12-28T09:05:20;94026.00;;;13.40
41940;BMP180;23057;48.554;14.454;2023-12-28T09:07:51;94031.00;;;13.50
41940;BMP180;23057;48.554;14.454;2023-12-28T09:10:22;94031.00;;;13.60
41940;BMP180;23057;48.554;14.454;2023-12-28T09:12:53;94039.00;;;13.70
41940;BMP180;23057;48.554;14.454;2023-12-28T09:15:23;94041.00;;;13.80
41940;BMP180;23057;48.554;14.454;2023-12-28T09:17:56;94041.00;;;13.90
41940;BMP180;23057;48.554;14.454;2023-12-28T09:20:27;94044.00;;;14.00
41940;BMP180;23057;48.554;14.454;2023-12-28T09:22:57;94032.00;;;14.10
41940;BMP180;23057;48.554;14.454;2023-12-28T09:25:28;94033.00;;;14.10
41940;BMP180;23057;48.554;14.454;2023-12-28T09:27:59;94028.00;;;14.20
41940;BMP180;23057;48.554;14.454;2023-12-28T09:30:30;94038.00;;;14.30
41940;BMP180;23057;48.554;14.454;2023-12-28T09:33:00;94027.00;;;14.40
41940;BMP180;23057;48.554;14.454;2023-12-28T09:35:31;94023.00;;;14.50
41940;BMP180;23057;48.554;14.454;2023-12-28T09:38:02;94023.00;;;14.50
41940;BMP180;23057;48.554;14.454;2023-12-28T09:40:35;94017.00;;;14.60
41940;BMP180;23057;48.554;14.454;2023-12-28T09:45:57;94027.00;;;14.80
41940;BMP180;23057;48.554;14.454;2023-12-28T09:48:29;94034.00;;;14.80
41940;BMP180;23057;48.554;14.454;2023-12-28T09:51:02;94036.00;;;14.90
41940;BMP180;23057;48.554;14.454;2023-12-28T09:53:33;94029.00;;;15.00
41940;BMP180;23057;48.554;14.454;2023-12-28T09:56:04;94030.00;;;15.00
41940;BMP180;23057;48.554;14.454;2023-12-28T09:58:37;94033.00;;;15.10
41940;BMP180;23057;48.554;14.454;2023-12-28T10:01:10;94028.00;;;15.20
41940;BMP180;23057;48.554;14.454;2023-12-28T10:03:41;94020.00;;;15.20
41940;BMP180;23057;48.554;14.454;2023-12-28T10:06:12;94018.00;;;15.30
41940;BMP180;23057;48.554;14.454;2023-12-28T10:08:47;94024.00;;;15.30
41940;BMP180;23057;48.554;14.454;2023-12-28T10:11:18;94013.00;;;15.40
41940;BMP180;23057;48.554;14.454;2023-12-28T10:13:49;94010.00;;;15.50
41940;BMP180;23057;48.554;14.454;2023-12-28T10:16:20;93999.00;;;15.60
41940;BMP180;23057;48.554;14.454;2023-12-28T10:18:51;93995.00;;;15.60
41940;BMP180;23057;48.554;14.454;2023-12-28T10:21:23;94005.00;;;15.70
41940;BMP180;23057;48.554;14.454;2023-12-28T10:23:54;93997.00;;;15.80
41940;BMP180;23057;48.554;14.454;2023-12-28T10:26:25;93991.00;;;15.90
41940;BMP180;23057;48.554;14.454;2023-12-28T10:28:59;93982.00;;;15.90
41940;BMP180;23057;48.554;14.454;2023-12-28T10:31:32;93980.00;;;16.00
41940;BMP180;23057;48.554;14.454;2023-12-28T10:34:03;93985.00;;;16.10
41940;BMP180;23057;48.554;14.454;2023-12-28T10:36:34;93978.00;;;16.10
41940;BMP180;23057;48.554;14.454;2023-12-28T10:39:10;93978.00;;;16.10
41940;BMP180;23057;48.554;14.454;2023-12-28T10:41:49;93974.00;;;16.20
41940;BMP180;23057;48.554;14.454;2023-12-28T10:44:31;93974.00;;;16.20
41940;BMP180;23057;48.554;14.454;2023-12-28T10:47:15;93966.00;;;16.30
41940;BMP180;23057;48.554;14.454;2023-12-28T10:49:54;93965.00;;;16.30
41940;BMP180;23057;48.554;14.454;2023-12-28T10:52:30;93968.00;;;16.40
41940;BMP180;23057;48.554;14.454;2023-12-28T10:58:18;93971.00;;;16.60
41940;BMP180;23057;48.554;14.454;2023-12-28T11:01:02;93972.00;;;16.70
41940;BMP180;23057;48.554;14.454;2023-12-28T11:03:41;93975.00;;;16.80
41940;BMP180;23057;48.554;14.454;2023-12-28T11:06:17;93969.00;;;16.90
41940;BMP180;23057;48.554;14.454;2023-12-28T11:08:51;93969.00;;;17.00
41940;BMP180;23057;48.554;14.454;2023-12-28T11:11:25;93974.00;;;17.10
41940;BMP180;23057;48.554;14.454;2023-12-28T11:14:00;93961.00;;;17.10
41940;BMP180;23057;48.554;14.454;2023-12-28T11:16:32;93957.00;;;17.20
41940;BMP180;23057;48.554;14.454;2023-12-28T11:19:05;93951.00;;;17.30
41940;BMP180;23057;48.554;14.454;2023-12-28T11:21:38;93949.00;;;17.40
41940;BMP180;23057;48.554;14.454;2023-12-28T11:24:09;93943.00;;;17.50
41940;BMP180;23057;48.554;14.454;2023-12-28T11:26:41;93943.00;;;17.50
41940;BMP180;23057;48.554;14.454;2023-12-28T11:29:12;93938.00;;;17.60
41940;BMP180;23057;48.554;14.454;2023-12-28T11:31:43;93931.00;;;17.70
41940;BMP180;23057;48.554;14.454;2023-12-28T11:34:14;93924.00;;;17.70
41940;BMP180;23057;48.554;14.454;2023-12-28T11:36:53;93930.00;;;17.70
41940;BMP180;23057;48.554;14.454;2023-12-28T11:39:33;93930.00;;;17.80
41940;BMP180;23057;48.554;14.454;2023-12-28T11:42:07;93932.00;;;17.80
41940;BMP180;23057;48.554;14.454;2023-12-28T11:44:42;93942.00;;;17.80
41940;BMP180;23057;48.554;14.454;2023-12-28T11:47:24;93946.00;;;17.90
41940;BMP180;23057;48.554;14.454;2023-12-28T11:50:07;93944.00;;;18.00
41940;BMP180;23057;48.554;14.454;2023-12-28T11:52:38;93945.00;;;18.00
41940;BMP180;23057;48.554;14.454;2023-12-28T11:55:09;93941.00;;;18.10
41940;BMP180;23057;48.554;14.454;2023-12-28T11:57:40;93936.00;;;18.20
41940;BMP180;23057;48.554;14.454;2023-12-28T12:00:12;93930.00;;;18.20
41940;BMP180;23057;48.554;14.454;2023-12-28T12:05:15;93938.00;;;18.20
41940;BMP180;23057;48.554;14.454;2023-12-28T12:07:45;93943.00;;;18.20
41940;BMP180;23057;48.554;14.454;2023-12-28T12:10:16;93933.00;;;18.10
41940;BMP180;23057;48.554;14.454;2023-12-28T12:12:47;93947.00;;;18.10
41940;BMP180;23057;48.554;14.454;2023-12-28T12:15:18;93943.00;;;18.00
41940;BMP180;23057;48.554;14.454;2023-12-28T12:17:50;93944.00;;;18.00
41940;BMP180;23057;48.554;14.454;2023-12-28T12:20:21;93936.00;;;18.00
41940;BMP180;23057;48.554;14.454;2023-12-28T12:22:53;93948.00;;;17.90
41940;BMP180;23057;48.554;14.454;2023-12-28T12:25:24;93939.00;;;17.90
41940;BMP180;23057;48.554;14.454;2023-12-28T12:27:55;93946.00;;;17.90
41940;BMP180;23057;48.554;14.454;2023-12-28T12:30:26;93946.00;;;17.90
41940;BMP180;23057;48.554;14.454;2023-12-28T12:32:56;93956.00;;;17.90
41940;BMP180;23057;48.554;14.454;2023-12-28T12:35:28;93957.00;;;17.90
41940;BMP180;23057;48.554;14.454;2023-12-28T12:37:59;93961.00;;;17.90
41940;BMP180;23057;48.554;14.454;2023-12-28T12:40:30;93949.00;;;17.90
41940;BMP180;23057;48.554;14.454;2023-12-28T12:43:01;93947.00;;;17.90
41940;BMP180;23057;48.554;14.454;2023-12-28T12:45:33;93936.00;;;17.80
41940;BMP180;23057;48.554;14.454;2023-12-28T12:48:04;93935.00;;;17.80
41940;BMP180;23057;48.554;14.454;2023-12-28T12:50:36;93936.00;;;17.80
41940;BMP180;23057;48.554;14.454;2023-12-28T12:53:08;93932.00;;;17.80
41940;BMP180;23057;48.554;14.454;2023-12-28T12:55:39;93931.00;;;17.80
41940;BMP180;23057;48.554;14.454;2023-12-28T12:58:10;93932.00;;;17.80
41940;BMP180;23057;48.554;14.454;2023-12-28T13:00:45;93936.00;;;17.80
41940;BMP180;23057;48.554;14.454;2023-12-28T13:03:16;93935.00;;;17.80
41940;BMP180;23057;48.554;14.454;2023-12-28T13:05:48;93938.00;;;17.80
41940;BMP180;23057;48.554;14.454;2023-12-28T13:08:19;93931.00;;;17.80
41940;BMP180;23057;48.554;14.454;2023-12-28T13:10:49;93922.00;;;17.80
41940;BMP180;23057;48.554;14.454;2023-12-28T13:13:20;93927.00;;;17.80
41940;BMP180;23057;48.554;14.454;2023-12-28T13:15:51;93920.00;;;17.70
41940;BMP180;23057;48.554;14.454;2023-12-28T13:18:22;93925.00;;;17.70
41940;BMP180;23057;48.554;14.454;2023-12-28T13:20:53;93922.00;;;17.70
41940;BMP180;23057;48.554;14.454;2023-12-28T13:23:23;93920.00;;;17.70
41940;BMP180;23057;48.554;14.454;2023-12-28T13:25:54;93924.00;;;17.60
41940;BMP180;23057;48.554;14.454;2023-12-28T13:28:25;93928.00;;;17.50
41940;BMP180;23057;48.554;14.454;2023-12-28T13:30:56;93921.00;;;17.50
41940;BMP180;23057;48.554;14.454;2023-12-28T13:33:27;93916.00;;;17.40
41940;BMP180;23057;48.554;14.454;2023-12-28T13:35:58;93913.00;;;17.30
41940;BMP180;23057;48.554;14.454;2023-12-28T13:38:29;93927.00;;;17.20
41940;BMP180;23057;48.554;14.454;2023-12-28T13:41:00;93926.00;;;17.20
41940;BMP180;23057;48.554;14.454;2023-12-28T13:43:31;93920.00;;;17.10
41940;BMP180;23057;48.554;14.454;2023-12-28T13:46:02;93924.00;;;17.10
41940;BMP180;23057;48.554;14.454;2023-12-28T13:48:34;93919.00;;;17.00
41940;BMP180;23057;48.554;14.454;2023-12-28T13:51:06;93912.00;;;17.00
41940;BMP180;23057;48.554;14.454;2023-12-28T13:53:37;93925.00;;;16.90
41940;BMP180;23057;48.554;14.454;2023-12-28T13:56:10;93930.00;;;16.80
41940;BMP180;23057;48.554;14.454;2023-12-28T13:58:41;93932.00;;;16.80
41940;BMP180;23057;48.554;14.454;2023-12-28T14:01:12;93922.00;;;16.70
41940;BMP180;23057;48.554;14.454;2023-12-28T14:03:43;93919.00;;;16.60
41940;BMP180;23057;48.554;14.454;2023-12-28T14:06:21;93914.00;;;16.50
41940;BMP180;23057;48.554;14.454;2023-12-28T14:08:52;93913.00;;;16.50
41940;BMP180;23057;48.554;14.454;2023-12-28T14:11:24;93913.00;;;16.40
41940;BMP180;23057;48.554;14.454;2023-12-28T14:13:55;93920.00;;;16.30
41940;BMP180;23057;48.554;14.454;2023-12-28T14:16:26;93922.00;;;16.20
41940;BMP180;23057;48.554;14.454;2023-12-28T14:18:57;93937.00;;;16.20
41940;BMP180;23057;48.554;14.454;2023-12-28T14:21:28;93928.00;;;16.10
41940;BMP180;23057;48.554;14.454;2023-12-28T14:23:59;93929.00;;;16.10
41940;BMP180;23057;48.554;14.454;2023-12-28T14:26:32;93916.00;;;16.10
41940;BMP180;23057;48.554;14.454;2023-12-28T14:29:04;93922.00;;;16.00
41940;BMP180;23057;48.554;14.454;2023-12-28T14:31:36;93926.00;;;15.90
41940;BMP180;23057;48.554;14.454;2023-12-28T14:34:08;93922.00;;;15.80
41940;BMP180;23057;48.554;14.454;2023-12-28T14:36:39;93915.00;;;15.80